Time;durP1;ratioP1;P1;durP2;ratioP2;P2;SDS_P1;SDS_P2;PMS_P1;PMS_P2;Temp;Humidity;BMP_temperature;BMP_pressure;BME280_temperature;BME280_humidity;BME280_pressure;Samples;Min_cycle;Max_cycle;Signal;HPM_P1;HPM_P2
2022/05/30 00:00:39;;;;;;;0.60;0.60;;;;;;;22.66;44.09;100875.06;5041853;28;20419;-49
2022/05/30 00:03:05;;;;;;;1.35;0.75;;;;;;;22.68;43.85;100878.56;5055425;28;20033;-50
2022/05/30 00:05:30;;;;;;;0.90;0.85;;;;;;;22.63;43.70;100869.81;5066437;28;20487;-53
2022/05/30 00:07:59;;;;;;;0.90;0.88;;;;;;;22.68;43.92;100875.94;5057488;28;20024;-48
2022/05/30 00:10:27;;;;;;;1.23;0.77;;;;;;;22.67;43.72;100871.56;5040568;28;20021;-50
2022/05/30 00:12:52;;;;;;;0.50;0.50;;;;;;;22.70;43.61;100881.22;5071641;28;20035;-49
2022/05/30 00:15:20;;;;;;;0.60;0.60;;;;;;;22.70;43.52;100874.19;5043668;28;20473;-47
2022/05/30 00:17:53;;;;;;;0.63;0.63;;;;;;;22.70;44.14;100879.44;5060106;28;20028;-46
2022/05/30 00:20:18;;;;;;;1.23;0.75;;;;;;;22.68;44.24;100873.31;5059049;28;20424;-47
2022/05/30 00:22:43;;;;;;;2.00;0.88;;;;;;;22.71;43.85;100875.94;5064910;28;20035;-50
2022/05/30 00:25:11;;;;;;;0.50;0.50;;;;;;;22.71;43.76;100878.56;5056555;28;20059;-46
2022/05/30 00:27:37;;;;;;;1.10;0.73;;;;;;;22.71;43.95;100873.31;5042688;28;20020;-54
2022/05/30 00:30:03;;;;;;;0.73;0.73;;;;;;;22.70;44.13;100871.56;5038315;28;20029;-52
2022/05/30 00:32:29;;;;;;;0.70;0.70;;;;;;;22.73;44.39;100875.97;5057579;28;20420;-48
2022/05/30 00:34:54;;;;;;;0.57;0.57;;;;;;;22.73;43.63;100875.97;5037274;28;20090;-50
2022/05/30 00:37:20;;;;;;;0.60;0.60;;;;;;;22.72;43.76;100872.44;5073042;28;20072;-50
2022/05/30 00:39:45;;;;;;;0.65;0.63;;;;;;;22.75;44.16;100880.34;5057038;28;20051;-49
2022/05/30 00:42:14;;;;;;;0.85;0.85;;;;;;;22.74;43.88;100883.81;5054853;28;20107;-50
2022/05/30 00:44:42;;;;;;;0.55;0.55;;;;;;;22.74;43.78;100883.81;5070914;28;20029;-48
2022/05/30 00:47:07;;;;;;;0.63;0.63;;;;;;;22.75;43.74;100885.59;5051921;28;20020;-46
2022/05/30 00:49:37;;;;;;;0.80;0.80;;;;;;;22.75;43.73;100885.59;5074854;22;20485;-50
2022/05/30 00:52:05;;;;;;;0.63;0.63;;;;;;;22.76;44.07;100884.72;5017181;28;20065;-47
2022/05/30 00:54:50;;;;;;;0.60;0.60;;;;;;;22.75;43.89;100880.34;5031541;28;20444;-52
2022/05/30 00:57:22;;;;;;;0.75;0.75;;;;;;;22.75;43.68;100880.34;5040501;28;20025;-49
2022/05/30 00:59:53;;;;;;;0.52;0.52;;;;;;;22.77;43.99;100882.97;5032107;28;20035;-50
2022/05/30 01:02:21;;;;;;;0.60;0.60;;;;;;;22.77;43.68;100878.59;5025344;28;20036;-47
2022/05/30 01:07:33;;;;;;;0.45;0.45;;;;;;;22.77;44.29;100883.84;5048945;28;20048;-51
2022/05/30 01:10:02;;;;;;;1.20;0.50;;;;;;;22.79;43.80;100881.22;5029158;28;20481;-50
2022/05/30 01:12:37;;;;;;;0.63;0.63;;;;;;;22.77;44.04;100873.34;5027963;28;20027;-48
2022/05/30 01:15:04;;;;;;;0.65;0.65;;;;;;;22.79;43.79;100875.97;5009637;28;20114;-49
2022/05/30 01:17:29;;;;;;;0.77;0.77;;;;;;;22.80;44.25;100876.84;5028432;28;20119;-49
2022/05/30 01:20:05;;;;;;;0.75;0.70;;;;;;;22.77;43.78;100873.34;5031933;28;20557;-49
2022/05/30 01:22:49;;;;;;;0.50;0.50;;;;;;;22.82;43.62;100875.13;5011986;28;20033;-51
2022/05/30 01:25:48;;;;;;;0.60;0.60;;;;;;;22.81;43.90;100876.00;5045384;28;20029;-51
2022/05/30 01:28:27;;;;;;;0.70;0.70;;;;;;;22.81;44.05;100876.00;5031042;28;20115;-51
2022/05/30 01:30:53;;;;;;;0.63;0.63;;;;;;;22.80;44.17;100871.59;5030295;28;20103;-50
2022/05/30 01:33:18;;;;;;;0.60;0.60;;;;;;;22.82;44.40;100875.13;5027034;28;20481;-48
2022/05/30 01:35:43;;;;;;;0.50;0.50;;;;;;;22.80;44.06;100868.97;5030770;28;20041;-48
2022/05/30 01:38:09;;;;;;;0.57;0.57;;;;;;;22.81;44.16;100871.59;5024786;28;20086;-48
2022/05/30 01:40:35;;;;;;;0.50;0.50;;;;;;;22.83;44.28;100876.88;5043452;28;20029;-54
2022/05/30 01:43:00;;;;;;;0.68;0.68;;;;;;;22.83;44.10;100876.88;5045100;28;20039;-51
2022/05/30 01:45:26;;;;;;;0.90;0.90;;;;;;;22.84;44.04;100868.13;5027950;28;20081;-49
2022/05/30 01:47:52;;;;;;;1.52;0.68;;;;;;;22.83;43.92;100866.38;5028329;28;20028;-53
2022/05/30 01:50:18;;;;;;;0.60;0.60;;;;;;;22.83;43.86;100866.38;5032731;28;20139;-54
2022/05/30 01:52:44;;;;;;;0.90;0.60;;;;;;;22.76;43.74;100854.97;5030562;28;20118;-48
2022/05/30 01:55:09;;;;;;;0.80;0.80;;;;;;;22.83;43.86;100867.22;5055619;28;20025;-47
2022/05/30 01:57:35;;;;;;;0.50;0.50;;;;;;;22.86;43.95;100871.63;5034490;28;20036;-50
2022/05/30 02:00:01;;;;;;;1.80;0.80;;;;;;;22.86;44.20;100866.38;5026599;28;20075;-55
2022/05/30 02:02:26;;;;;;;0.52;0.52;;;;;;;22.87;44.08;100868.13;5023069;28;20067;-49
2022/05/30 02:04:53;;;;;;;0.85;0.85;;;;;;;22.87;43.76;100862.88;5017128;28;20047;-47
2022/05/30 02:07:18;;;;;;;0.40;0.40;;;;;;;22.86;43.79;100863.75;5042255;28;20371;-47
2022/05/30 02:09:44;;;;;;;0.52;0.52;;;;;;;22.86;43.65;100866.38;5032165;28;20064;-50
2022/05/30 02:12:10;;;;;;;0.95;0.77;;;;;;;22.77;44.04;100852.31;5041281;28;20119;-47
2022/05/30 02:14:36;;;;;;;0.50;0.50;;;;;;;22.85;44.29;100859.38;5053230;28;20056;-52
2022/05/30 02:17:01;;;;;;;1.20;0.70;;;;;;;22.88;44.07;100869.88;5048541;28;20071;-55
2022/05/30 02:19:32;;;;;;;0.73;0.73;;;;;;;22.88;44.21;100864.63;5035298;28;20059;-52
2022/05/30 02:21:58;;;;;;;0.80;0.80;;;;;;;22.88;44.26;100864.63;5052762;28;20052;-52
2022/05/30 02:24:24;;;;;;;0.70;0.70;;;;;;;22.89;43.95;100871.63;5035212;28;20040;-54
2022/05/30 02:26:49;;;;;;;0.77;0.57;;;;;;;22.88;44.27;100862.00;5017428;28;20477;-51
2022/05/30 02:29:15;;;;;;;0.52;0.52;;;;;;;22.88;43.70;100869.88;5042572;28;20025;-49
2022/05/30 02:31:42;;;;;;;0.88;0.77;;;;;;;22.87;43.88;100868.13;5031956;28;20036;-54
2022/05/30 02:36:51;;;;;;;0.50;0.50;;;;;;;22.88;43.73;100873.38;5051632;28;20023;-48
2022/05/30 02:39:22;;;;;;;0.60;0.60;;;;;;;22.89;44.07;100876.88;5018234;28;20107;-51
2022/05/30 02:41:48;;;;;;;0.70;0.70;;;;;;;22.89;43.75;100866.38;5017481;28;20052;-47
2022/05/30 02:44:17;;;;;;;0.50;0.50;;;;;;;22.80;43.66;100855.84;5018549;28;20043;-52
2022/05/30 02:46:42;;;;;;;0.50;0.50;;;;;;;22.88;44.08;100876.00;5034336;28;20468;-53
2022/05/30 02:49:08;;;;;;;0.60;0.60;;;;;;;22.89;43.75;100876.88;5034826;28;20036;-47
2022/05/30 02:51:33;;;;;;;0.60;0.60;;;;;;;22.88;44.07;100877.75;5034844;28;20036;-53
2022/05/30 02:53:59;;;;;;;0.50;0.50;;;;;;;22.91;44.04;100890.91;5035134;28;20043;-47
2022/05/30 02:56:24;;;;;;;0.60;0.60;;;;;;;22.90;43.81;100884.75;5052019;28;20024;-51
2022/05/30 02:58:50;;;;;;;0.50;0.50;;;;;;;22.89;43.91;100882.13;5038411;28;20056;-50
2022/05/30 03:01:15;;;;;;;0.60;0.60;;;;;;;22.90;43.87;100884.75;5034069;28;20025;-50
2022/05/30 03:03:41;;;;;;;0.80;0.63;;;;;;;22.89;43.74;100893.50;5035141;28;20032;-49
2022/05/30 03:06:07;;;;;;;0.45;0.45;;;;;;;22.91;43.96;100885.66;5031277;28;20370;-49
2022/05/30 03:08:32;;;;;;;0.50;0.50;;;;;;;22.92;43.96;100887.41;5035913;28;20060;-54
2022/05/30 03:10:57;;;;;;;0.60;0.60;;;;;;;22.91;43.97;100890.91;5049963;28;20477;-48
2022/05/30 03:13:23;;;;;;;0.57;0.57;;;;;;;22.92;44.28;100897.91;5043987;28;20033;-51
2022/05/30 03:15:48;;;;;;;1.83;0.95;;;;;;;22.92;44.00;100892.66;5035564;28;20522;-50
2022/05/30 03:18:14;;;;;;;0.50;0.50;;;;;;;22.93;44.29;100893.50;5035423;28;20359;-49
2022/05/30 03:20:39;;;;;;;1.40;0.50;;;;;;;22.74;44.03;100862.81;5023641;28;20044;-51
2022/05/30 03:23:05;;;;;;;0.80;0.80;;;;;;;22.93;43.71;100893.50;5033312;28;20025;-54
2022/05/30 03:25:30;;;;;;;0.45;0.45;;;;;;;22.92;43.98;100892.66;5033986;28;20347;-56
2022/05/30 03:27:56;;;;;;;0.70;0.70;;;;;;;22.91;44.21;100885.66;5032497;28;20076;-52
2022/05/30 03:30:22;;;;;;;0.77;0.77;;;;;;;22.93;44.02;100894.41;5016657;28;20026;-51
2022/05/30 03:32:48;;;;;;;0.57;0.57;;;;;;;22.88;43.74;100885.63;5052022;28;20021;-53
2022/05/30 03:35:15;;;;;;;0.47;0.47;;;;;;;22.94;44.32;100895.25;5016931;28;20028;-52
2022/05/30 03:37:41;;;;;;;0.40;0.40;;;;;;;22.93;44.12;100894.41;5034414;28;20036;-50
2022/05/30 03:40:08;;;;;;;0.40;0.40;;;;;;;22.94;44.25;100901.41;5051323;28;20024;-48
2022/05/30 03:42:33;;;;;;;0.57;0.57;;;;;;;22.90;43.87;100897.03;5052293;28;20033;-50
2022/05/30 03:44:59;;;;;;;0.70;0.70;;;;;;;22.95;43.91;100903.16;5033366;28;20374;-48
2022/05/30 03:47:24;;;;;;;0.50;0.50;;;;;;;22.93;43.86;100899.66;5033073;28;20037;-52
2022/05/30 03:49:50;;;;;;;0.40;0.40;;;;;;;22.90;43.64;100883.91;5034284;28;20045;-46
2022/05/30 03:52:15;;;;;;;0.40;0.40;;;;;;;22.94;44.20;100901.41;5033446;28;20052;-50
2022/05/30 03:54:41;;;;;;;0.63;0.63;;;;;;;22.94;43.78;100895.25;5051840;28;20053;-50
2022/05/30 03:57:06;;;;;;;0.80;0.80;;;;;;;22.94;44.05;100896.16;5017045;28;20060;-50
2022/05/30 03:59:32;;;;;;;0.60;0.60;;;;;;;22.94;43.77;100896.16;5029894;28;20120;-47
2022/05/30 04:01:57;;;;;;;0.50;0.50;;;;;;;22.94;43.88;100893.53;5032325;28;20032;-50
2022/05/30 04:04:23;;;;;;;0.60;0.60;;;;;;;22.94;43.79;100898.78;5043886;28;20025;-53
2022/05/30 04:06:48;;;;;;;0.52;0.52;;;;;;;22.93;43.63;100899.66;5051642;28;20104;-49
2022/05/30 04:09:14;;;;;;;0.50;0.50;;;;;;;22.94;43.65;100901.41;5033398;28;20385;-53
2022/05/30 04:11:39;;;;;;;0.40;0.40;;;;;;;22.94;43.76;100906.66;5055477;28;20031;-49
2022/05/30 04:14:04;;;;;;;0.50;0.50;;;;;;;22.95;44.17;100908.41;5053590;28;20172;-53
2022/05/30 04:16:30;;;;;;;0.45;0.43;;;;;;;22.95;43.80;100908.41;5054223;28;20025;-48
2022/05/30 04:18:55;;;;;;;0.40;0.40;;;;;;;22.94;44.66;100904.03;5051380;28;20025;-48
2022/05/30 04:21:22;;;;;;;0.40;0.40;;;;;;;22.87;43.70;100889.13;5021402;28;20032;-50
2022/05/30 04:23:47;;;;;;;0.43;0.43;;;;;;;22.95;44.19;100903.16;5037223;28;20021;-48
2022/05/30 04:26:14;;;;;;;0.50;0.50;;;;;;;22.94;43.97;100906.66;5025292;28;20454;-50
2022/05/30 04:28:42;;;;;;;0.50;0.50;;;;;;;22.86;44.01;100890.00;5044381;28;20036;-47
2022/05/30 04:31:12;;;;;;;0.60;0.60;;;;;;;22.95;43.64;100913.66;5029999;28;20021;-48
2022/05/30 04:33:39;;;;;;;0.47;0.47;;;;;;;22.95;44.13;100911.03;5034337;28;20446;-46
2022/05/30 04:36:09;;;;;;;0.50;0.50;;;;;;;22.96;44.01;100915.41;5023676;28;20041;-51
2022/05/30 04:38:36;;;;;;;0.50;0.50;;;;;;;22.96;43.80;100914.53;5025197;28;20033;-48
2022/05/30 04:41:01;;;;;;;0.47;0.47;;;;;;;22.95;43.95;100907.53;5054301;28;20039;-49
2022/05/30 04:43:26;;;;;;;0.60;0.60;;;;;;;22.95;43.67;100913.66;5049708;28;20095;-47
2022/05/30 04:46:11;;;;;;;0.40;0.40;;;;;;;22.94;43.58;100911.91;5036764;28;20080;-49
2022/05/30 04:48:37;;;;;;;0.40;0.40;;;;;;;22.95;43.68;100918.91;5054270;28;20098;-48
2022/05/30 04:51:02;;;;;;;1.08;0.70;;;;;;;22.96;43.75;100915.41;5052818;28;20053;-53
2022/05/30 04:53:28;;;;;;;0.40;0.40;;;;;;;22.96;44.00;100920.66;5038407;28;20115;-47
2022/05/30 04:55:53;;;;;;;0.50;0.50;;;;;;;22.96;43.91;100919.78;5036916;28;20057;-46
2022/05/30 04:58:18;;;;;;;0.82;0.50;;;;;;;22.95;43.80;100918.91;5036457;28;20032;-49
2022/05/30 05:00:44;;;;;;;0.45;0.45;;;;;;;22.97;44.26;100927.69;5035891;28;20175;-49
2022/05/30 05:03:09;;;;;;;0.50;0.50;;;;;;;22.93;43.85;100925.91;5046971;28;20497;-52
2022/05/30 05:09:05;;;;;;;0.40;0.40;;;;;;;22.96;43.91;100931.19;5051851;28;20083;-52
2022/05/30 05:14:53;;;;;;;0.50;0.50;;;;;;;22.96;44.07;100936.44;5046457;28;20512;-52
2022/05/30 05:20:42;;;;;;;0.50;0.50;;;;;;;22.96;44.12;100925.94;5050555;28;20031;-46
2022/05/30 05:26:29;;;;;;;0.77;0.77;;;;;;;22.96;43.94;100933.81;5048847;28;20538;-49
2022/05/30 05:32:17;;;;;;;0.93;0.50;;;;;;;22.90;43.75;100928.53;5049653;28;20523;-46
2022/05/30 05:41:43;;;;;;;0.40;0.40;;;;;;;22.98;43.75;100939.03;5053575;28;20055;-52
2022/05/30 05:47:31;;;;;;;13.43;2.88;;;;;;;22.80;42.63;100934.59;5042689;28;20032;-44
2022/05/30 05:53:18;;;;;;;2.55;2.35;;;;;;;22.18;41.96;100930.81;5037590;28;20499;-42
2022/05/30 06:01:59;;;;;;;5.30;2.70;;;;;;;22.27;43.52;100940.50;5034103;28;20074;-39
2022/05/30 06:04:24;;;;;;;10.73;2.50;;;;;;;22.21;43.21;100944.81;5009161;28;20755;-43
2022/05/30 06:06:50;;;;;;;16.35;3.35;;;;;;;22.09;42.91;100940.38;5041518;28;20029;-40
2022/05/30 06:09:16;;;;;;;13.05;2.60;;;;;;;22.07;42.71;100940.38;5051780;28;20029;-46
2022/05/30 06:11:41;;;;;;;2.47;1.95;;;;;;;22.08;42.94;100950.00;5053281;28;20035;-39
2022/05/30 06:14:09;;;;;;;4.93;2.08;;;;;;;22.17;43.79;100944.81;5051395;28;20029;-40
2022/05/30 06:16:38;;;;;;;9.57;3.40;;;;;;;22.38;43.37;100948.41;5051912;28;20040;-45
2022/05/30 06:19:09;;;;;;;4.65;2.40;;;;;;;22.46;43.53;100946.72;5031912;28;20025;-43
2022/05/30 06:21:38;;;;;;;16.08;4.90;;;;;;;22.39;44.11;100950.16;5047606;28;20116;-41
2022/05/30 06:24:08;;;;;;;14.48;4.50;;;;;;;22.38;44.70;100953.66;5017841;28;20056;-40
2022/05/30 06:26:34;;;;;;;5.40;2.55;;;;;;;22.32;44.17;100953.63;5052020;28;20120;-41
2022/05/30 06:29:00;;;;;;;13.05;4.15;;;;;;;22.24;44.52;100956.19;5035105;28;20473;-40
2022/05/30 06:31:28;;;;;;;9.25;2.95;;;;;;;22.21;44.32;100960.56;5029931;28;20055;-40
2022/05/30 06:33:54;;;;;;;9.75;3.95;;;;;;;22.17;44.03;100965.78;5052057;28;20082;-40
2022/05/30 06:36:22;;;;;;;4.53;3.08;;;;;;;22.15;44.24;100964.00;5018454;28;20025;-40
2022/05/30 06:38:48;;;;;;;7.10;3.03;;;;;;;22.09;44.17;100966.59;5033730;28;20549;-39
2022/05/30 06:41:17;;;;;;;8.88;3.95;;;;;;;22.12;43.81;100972.75;5030238;28;20116;-40
2022/05/30 06:43:44;;;;;;;8.60;2.63;;;;;;;22.13;43.83;100969.25;5030196;28;20051;-39
2022/05/30 06:46:12;;;;;;;12.90;3.70;;;;;;;22.04;43.91;100974.44;5050834;28;20454;-39
2022/05/30 06:48:41;;;;;;;13.13;3.60;;;;;;;21.99;43.67;100973.53;5029384;28;20350;-40
2022/05/30 06:51:13;;;;;;;5.68;2.28;;;;;;;21.95;43.79;100963.88;5029760;28;20365;-40
2022/05/30 06:53:40;;;;;;;7.07;2.80;;;;;;;21.92;43.63;100974.34;5027236;28;20029;-39
2022/05/30 06:56:16;;;;;;;2.28;1.60;;;;;;;21.94;43.50;100972.63;5028422;28;20477;-40
2022/05/30 06:58:46;;;;;;;3.30;1.83;;;;;;;21.93;43.50;100973.50;5037822;28;20115;-40
2022/05/30 07:01:12;;;;;;;2.95;2.28;;;;;;;21.92;43.35;100974.34;5042843;28;20155;-39
2022/05/30 07:03:39;;;;;;;3.70;2.10;;;;;;;21.90;43.44;100976.94;5050974;23;20134;-37
2022/05/30 07:06:09;;;;;;;4.40;1.75;;;;;;;21.88;43.20;100974.34;5063212;28;20349;-40
2022/05/30 07:08:35;;;;;;;2.83;2.25;;;;;;;21.83;43.66;100968.19;5066886;28;20372;-37
2022/05/30 07:11:01;;;;;;;9.30;2.28;;;;;;;21.80;43.25;100967.25;5070733;28;20350;-41
2022/05/30 07:13:28;;;;;;;3.22;1.65;;;;;;;21.80;43.25;100968.16;5064604;28;20115;-38
2022/05/30 07:15:53;;;;;;;4.97;2.10;;;;;;;21.77;43.39;100976.00;5071451;28;20028;-38
2022/05/30 07:18:19;;;;;;;4.53;2.25;;;;;;;21.81;43.22;100977.78;5065806;28;20111;-37
2022/05/30 07:20:45;;;;;;;7.30;1.95;;;;;;;21.89;43.22;100981.34;5047161;28;20035;-37
2022/05/30 07:23:13;;;;;;;1.58;1.48;;;;;;;21.91;42.90;100983.09;5073075;28;20042;-38
2022/05/30 07:25:39;;;;;;;5.90;1.92;;;;;;;21.84;43.25;100992.63;5050384;28;20036;-38
2022/05/30 07:28:06;;;;;;;6.70;2.08;;;;;;;21.89;43.10;100985.69;5065836;28;20054;-38
2022/05/30 07:30:34;;;;;;;2.00;1.73;;;;;;;21.89;43.34;100990.94;5070187;28;20398;-39
2022/05/30 07:33:00;;;;;;;5.10;2.08;;;;;;;21.88;42.93;100984.81;5049063;28;20039;-38
2022/05/30 07:35:26;;;;;;;2.45;1.67;;;;;;;21.88;42.39;100990.06;5060234;28;20421;-40
2022/05/30 07:37:51;;;;;;;1.55;1.20;;;;;;;21.84;42.30;100977.81;5072562;28;20349;-41
2022/05/30 07:40:17;;;;;;;4.10;1.75;;;;;;;21.81;42.86;100990.88;5070365;28;20024;-38
2022/05/30 07:42:42;;;;;;;7.85;1.67;;;;;;;21.80;42.56;100983.88;5066642;28;20028;-38
2022/05/30 07:45:09;;;;;;;3.25;1.80;;;;;;;21.80;42.70;100983.00;5072252;28;20024;-41
2022/05/30 07:47:38;;;;;;;1.92;1.80;;;;;;;21.81;42.42;100982.13;5074245;28;20099;-39
2022/05/30 07:50:04;;;;;;;2.00;1.25;;;;;;;21.78;42.38;100983.00;5076264;28;20097;-39
2022/05/30 07:52:31;;;;;;;1.58;1.40;;;;;;;21.76;42.04;100979.47;5077595;28;20050;-38
2022/05/30 07:54:57;;;;;;;10.75;2.13;;;;;;;21.76;42.27;100984.72;5066058;28;20583;-38
2022/05/30 07:57:50;;;;;;;5.97;1.77;;;;;;;21.76;42.19;100984.72;5068522;28;20100;-38
2022/05/30 08:00:08;;;;;;;4.13;1.55;;;;;;;21.77;41.88;100986.47;5073222;28;20149;-38
2022/05/30 08:02:34;;;;;;;2.40;1.70;;;;;;;21.77;42.22;100996.97;5057584;28;20027;-40
2022/05/30 08:05:00;;;;;;;1.10;1.02;;;;;;;21.79;41.92;100995.25;5070944;28;20028;-38
2022/05/30 08:07:25;;;;;;;2.72;1.75;;;;;;;21.79;41.96;100987.38;5070670;28;20376;-39
2022/05/30 08:09:51;;;;;;;4.03;1.67;;;;;;;21.79;41.52;100995.25;5067734;28;20031;-38
2022/05/30 08:12:16;;;;;;;3.15;1.67;;;;;;;21.77;42.04;101002.22;5076516;28;20028;-42
2022/05/30 08:14:41;;;;;;;2.00;1.80;;;;;;;21.79;42.05;101000.47;5051934;28;20120;-38
2022/05/30 08:17:07;;;;;;;2.00;1.55;;;;;;;21.74;41.72;101007.44;5055691;28;20020;-41
2022/05/30 08:19:33;;;;;;;1.00;1.00;;;;;;;21.76;41.75;101000.47;5070904;28;20019;-38
2022/05/30 08:25:21;;;;;;;1.23;1.13;;;;;;;21.75;41.62;101003.94;5089019;28;20047;-38
2022/05/30 08:27:47;;;;;;;5.30;1.77;;;;;;;21.71;41.83;101010.00;5070514;28;20027;-38
2022/05/30 08:30:18;;;;;;;2.90;1.30;;;;;;;21.72;41.74;101009.13;5074109;28;20098;-39
2022/05/30 08:32:45;;;;;;;1.83;1.55;;;;;;;21.71;41.78;101015.22;5072735;28;20030;-38
2022/05/30 08:35:15;;;;;;;1.27;1.17;;;;;;;21.72;41.64;101014.38;5053645;28;20039;-40
2022/05/30 08:37:41;;;;;;;2.63;1.60;;;;;;;21.74;41.26;101017.91;5069828;28;20131;-38
2022/05/30 08:42:57;;;;;;;2.33;1.25;;;;;;;21.78;41.67;101013.56;5094646;28;20042;-40
2022/05/30 08:45:25;;;;;;;2.72;1.45;;;;;;;21.79;41.30;101016.22;5074453;28;20118;-39
2022/05/30 08:47:56;;;;;;;1.60;1.30;;;;;;;21.75;41.44;101022.28;5067727;28;20039;-38
2022/05/30 08:50:57;;;;;;;1.45;1.23;;;;;;;21.75;41.62;101019.66;5068579;28;20035;-39
2022/05/30 08:53:47;;;;;;;1.63;1.45;;;;;;;21.73;41.10;101018.75;5055510;28;20123;-38
2022/05/30 08:56:20;;;;;;;4.03;1.20;;;;;;;21.71;41.12;101023.09;5090855;28;20095;-39
2022/05/30 08:58:58;;;;;;;4.30;1.27;;;;;;;21.73;41.47;101027.50;5068945;28;20020;-40
2022/05/30 09:01:45;;;;;;;2.33;1.52;;;;;;;21.71;41.01;101023.09;5056049;28;20030;-38
2022/05/30 09:04:40;;;;;;;2.47;1.35;;;;;;;21.71;41.50;101024.00;5048497;28;20485;-38
2022/05/30 09:07:13;;;;;;;3.92;1.10;;;;;;;21.70;41.09;101021.34;5064730;28;20035;-40
2022/05/30 09:09:43;;;;;;;1.73;0.90;;;;;;;21.72;40.77;101024.84;5047480;28;20032;-40
2022/05/30 09:12:25;;;;;;;1.88;1.10;;;;;;;21.74;40.76;101023.16;5057921;28;20020;-39
2022/05/30 09:14:55;;;;;;;4.07;1.65;;;;;;;21.78;40.87;101024.94;5070027;28;20035;-37
2022/05/30 09:17:43;;;;;;;5.60;1.30;;;;;;;21.79;40.62;101016.22;5069603;28;20078;-38
2022/05/30 09:20:12;;;;;;;1.15;1.05;;;;;;;21.79;40.59;101013.59;5073020;28;20020;-38
2022/05/30 09:22:38;;;;;;;3.97;1.50;;;;;;;21.78;40.99;101014.47;5074936;28;20034;-38
2022/05/30 09:27:49;;;;;;;0.65;0.65;;;;;;;21.78;40.44;101019.69;5062714;28;20030;-39
2022/05/30 09:30:20;;;;;;;1.92;1.20;;;;;;;21.77;40.62;101017.94;5054241;28;20465;-38
2022/05/30 09:32:58;;;;;;;1.95;1.55;;;;;;;21.74;40.49;101026.63;5073945;28;20100;-39
2022/05/30 09:35:31;;;;;;;1.35;1.25;;;;;;;21.76;40.82;101021.44;5069138;28;20465;-39
2022/05/30 09:38:10;;;;;;;1.02;1.02;;;;;;;21.73;40.47;101026.63;5063224;28;20032;-38
2022/05/30 09:40:51;;;;;;;2.35;0.93;;;;;;;21.71;40.59;101033.59;5042980;28;20028;-39
2022/05/30 09:43:40;;;;;;;1.10;1.00;;;;;;;21.68;40.75;101034.44;5053550;28;20020;-38
2022/05/30 09:46:15;;;;;;;0.90;0.90;;;;;;;21.65;40.41;101031.81;5054837;28;20388;-39
2022/05/30 09:48:58;;;;;;;1.23;0.98;;;;;;;21.68;40.37;101036.19;5066430;28;20032;-39
2022/05/30 09:51:37;;;;;;;1.50;1.30;;;;;;;21.72;40.25;101043.19;5056616;28;20020;-39
2022/05/30 09:54:03;;;;;;;3.42;1.42;;;;;;;21.72;40.25;101045.81;5091713;28;20031;-38
2022/05/30 09:56:29;;;;;;;1.75;1.27;;;;;;;21.72;40.48;101041.47;5069934;28;20039;-40
2022/05/30 09:59:11;;;;;;;1.30;1.20;;;;;;;21.71;40.29;101049.31;5068671;28;20124;-39
2022/05/30 10:01:36;;;;;;;1.40;1.30;;;;;;;21.72;40.23;101045.81;5054874;28;20024;-40
2022/05/30 10:04:28;;;;;;;1.02;0.93;;;;;;;21.69;40.01;101051.94;5064422;28;20055;-38
2022/05/30 10:07:20;;;;;;;0.90;0.90;;;;;;;21.68;40.41;101054.53;5048345;28;20035;-38
2022/05/30 10:10:09;;;;;;;3.95;1.40;;;;;;;21.66;40.07;101046.66;5046351;28;20047;-39
2022/05/30 10:12:44;;;;;;;2.90;1.27;;;;;;;21.65;40.32;101049.25;5084356;28;20115;-43
2022/05/30 10:15:24;;;;;;;3.03;1.02;;;;;;;21.67;40.25;101052.78;5067518;28;20035;-41
2022/05/30 10:17:50;;;;;;;1.10;0.85;;;;;;;21.68;40.24;101060.66;5086814;28;20027;-40
2022/05/30 10:20:24;;;;;;;0.98;0.98;;;;;;;21.78;40.64;101061.66;5073817;28;20081;-44
2022/05/30 10:29:39;;;;;;;0.70;0.70;;;;;;;22.03;40.83;101072.34;5079298;28;20046;-42
2022/05/30 10:32:15;;;;;;;2.58;0.98;;;;;;;22.03;40.77;101067.09;5035225;28;20325;-39
2022/05/30 10:35:18;;;;;;;4.13;1.27;;;;;;;22.02;40.96;101067.97;5057735;28;20036;-40
2022/05/30 10:37:46;;;;;;;1.95;1.20;;;;;;;21.98;41.21;101071.44;5058962;28;20119;-38
2022/05/30 10:40:22;;;;;;;1.23;1.13;;;;;;;21.96;41.46;101074.03;5086229;28;20035;-38
2022/05/30 10:43:12;;;;;;;1.23;1.13;;;;;;;22.07;40.99;101073.25;5077632;28;20465;-42
2022/05/30 10:45:50;;;;;;;1.35;1.10;;;;;;;22.14;41.42;101080.28;5062540;28;20366;-42
2022/05/30 10:48:39;;;;;;;1.35;0.90;;;;;;;22.16;41.34;101078.56;5086778;28;20032;-39
2022/05/30 10:51:22;;;;;;;1.10;1.00;;;;;;;22.11;41.54;101075.91;5083433;28;20131;-40
2022/05/30 10:54:25;;;;;;;5.18;1.20;;;;;;;22.09;41.44;101076.75;5065247;28;20032;-41
2022/05/30 10:56:52;;;;;;;0.57;0.57;;;;;;;22.06;41.69;101072.38;5078809;28;20077;-41
2022/05/30 10:59:37;;;;;;;1.27;1.17;;;;;;;22.09;41.43;101080.28;5090910;28;20024;-42
2022/05/30 11:02:13;;;;;;;1.20;1.15;;;;;;;22.11;41.41;101081.16;5088046;28;20530;-39
2022/05/30 11:04:51;;;;;;;1.48;1.08;;;;;;;22.12;41.61;101088.16;5071117;28;20395;-39
2022/05/30 11:07:42;;;;;;;2.25;1.00;;;;;;;22.13;41.75;101084.69;5074026;28;20023;-43
2022/05/30 11:10:10;;;;;;;1.15;1.05;;;;;;;22.14;41.53;101086.44;5066153;28;20093;-39
2022/05/30 11:12:39;;;;;;;1.38;1.27;;;;;;;22.17;41.63;101086.47;5079582;28;20480;-40
2022/05/30 11:15:31;;;;;;;4.22;1.20;;;;;;;20.84;40.95;101069.25;5065304;28;20028;-40
2022/05/30 11:18:03;;;;;;;3.42;0.90;;;;;;;19.83;41.16;101076.34;5064203;28;20142;-46
2022/05/30 11:20:36;;;;;;;1.77;1.20;;;;;;;19.23;42.75;101068.22;5070112;28;20028;-47
2022/05/30 11:23:05;;;;;;;1.53;1.33;;;;;;;18.89;42.07;101067.50;5068052;28;20069;-40
2022/05/30 11:25:55;;;;;;;0.60;0.60;;;;;;;18.65;42.56;101073.94;5071677;28;20028;-39
2022/05/30 11:28:48;;;;;;;1.80;1.40;;;;;;;18.40;43.48;101067.25;5080947;28;20434;-42
2022/05/30 11:31:20;;;;;;;2.78;1.20;;;;;;;18.23;43.74;101074.66;5077258;28;20389;-40
2022/05/30 11:34:23;;;;;;;1.10;1.00;;;;;;;18.45;43.76;101069.94;5082747;28;20028;-45
2022/05/30 11:37:00;;;;;;;1.10;1.10;;;;;;;18.42;44.13;101075.09;5082909;28;20036;-44
2022/05/30 11:39:40;;;;;;;0.90;0.90;;;;;;;18.50;44.11;101078.75;5065230;28;20024;-40
2022/05/30 11:42:37;;;;;;;1.40;0.95;;;;;;;18.69;44.29;101075.75;5056349;28;20091;-44
2022/05/30 11:45:29;;;;;;;2.33;1.35;;;;;;;18.58;44.16;101072.03;5081511;28;20040;-44
2022/05/30 11:48:12;;;;;;;1.75;1.27;;;;;;;18.38;44.15;101069.81;5041731;28;20035;-42
2022/05/30 11:50:51;;;;;;;1.10;1.00;;;;;;;18.58;43.61;101072.03;5052617;28;20126;-43
2022/05/30 11:53:37;;;;;;;1.20;1.10;;;;;;;18.54;43.04;101075.38;5067423;28;20488;-44
2022/05/30 11:56:12;;;;;;;0.88;0.80;;;;;;;18.51;42.34;101075.31;5086513;28;20128;-39
2022/05/30 11:58:56;;;;;;;3.08;0.75;;;;;;;19.05;42.17;101078.28;5086265;28;20031;-39
2022/05/30 12:01:23;;;;;;;0.65;0.65;;;;;;;19.73;41.28;101078.75;5073259;28;20106;-39
2022/05/30 12:04:41;;;;;;;2.22;0.93;;;;;;;20.26;40.70;101091.03;5039007;28;20047;-40
2022/05/30 12:07:20;;;;;;;3.60;0.95;;;;;;;20.51;41.00;101081.84;4955200;28;20033;-39
2022/05/30 12:10:17;;;;;;;1.70;1.00;;;;;;;20.67;40.38;101087.31;5091493;28;20093;-40
2022/05/30 12:13:03;;;;;;;0.50;0.50;;;;;;;20.80;40.13;101085.78;5062867;28;20066;-38
2022/05/30 12:15:48;;;;;;;2.40;0.65;;;;;;;20.87;40.51;101091.09;5081698;28;20028;-40
2022/05/30 12:24:11;;;;;;;3.05;1.00;;;;;;;21.08;40.34;101099.25;5068813;28;20411;-41
2022/05/30 12:26:56;;;;;;;2.75;1.05;;;;;;;21.15;39.85;101091.47;5089213;28;20024;-39
2022/05/30 12:29:42;;;;;;;0.90;0.85;;;;;;;21.17;39.86;101099.34;5059068;28;20329;-40
2022/05/30 12:32:16;;;;;;;1.63;0.70;;;;;;;21.17;39.60;101104.59;5074323;28;20099;-39
2022/05/30 12:37:52;;;;;;;4.28;1.05;;;;;;;21.19;39.61;101108.13;5095370;28;20032;-40
2022/05/30 12:40:26;;;;;;;1.95;1.27;;;;;;;21.21;40.04;101101.16;5095153;28;20146;-40
2022/05/30 12:43:23;;;;;;;0.82;0.82;;;;;;;21.23;40.04;101107.28;5086064;28;20038;-38
2022/05/30 12:46:07;;;;;;;1.95;0.90;;;;;;;21.24;39.50;101106.44;5095124;28;20450;-41
2022/05/30 12:48:42;;;;;;;0.83;0.77;;;;;;;21.28;39.43;101108.22;5060442;28;20401;-39